createdAt,value
2022-10-06T00:01:09.636Z,2.33
2022-10-06T00:03:38.321Z,2.13
2022-10-06T00:06:06.851Z,2.20
2022-10-06T00:08:37.795Z,2.03
2022-10-06T00:11:06.060Z,2.10
2022-10-06T00:13:33.664Z,1.95
2022-10-06T00:16:01.259Z,1.75
2022-10-06T00:18:29.969Z,2.15
2022-10-06T00:20:59.005Z,2.05
2022-10-06T00:23:28.479Z,1.90
2022-10-06T00:25:55.743Z,1.95
2022-10-06T00:28:22.912Z,1.88
2022-10-06T00:30:51.166Z,2.00
2022-10-06T00:33:18.354Z,2.75
2022-10-06T00:35:45.933Z,2.25
2022-10-06T00:38:14.911Z,1.95
2022-10-06T00:40:50.903Z,2.05
2022-10-06T00:43:52.043Z,1.90
2022-10-06T00:46:36.097Z,1.92
2022-10-06T00:51:59.851Z,1.55
2022-10-06T00:54:27.950Z,2.05
2022-10-06T00:56:54.957Z,1.77
2022-10-06T00:59:21.721Z,2.00
2022-10-06T01:02:11.415Z,1.90
2022-10-06T01:04:45.469Z,1.65
2022-10-06T01:07:12.444Z,1.70
2022-10-06T01:09:40.408Z,2.10
2022-10-06T01:12:08.952Z,1.90
2022-10-06T01:14:39.235Z,1.98
2022-10-06T01:17:29.130Z,1.90
2022-10-06T01:20:08.895Z,1.85
2022-10-06T01:22:40.075Z,1.98
2022-10-06T01:25:09.734Z,1.90
2022-10-06T01:27:41.213Z,1.70
2022-10-06T01:30:14.034Z,1.90
2022-10-06T01:32:41.407Z,2.03
2022-10-06T01:35:10.236Z,1.88
2022-10-06T01:37:37.063Z,1.85
2022-10-06T01:40:04.330Z,1.80
2022-10-06T01:42:33.035Z,1.90
2022-10-06T01:45:00.144Z,1.92
2022-10-06T01:47:27.079Z,1.80
2022-10-06T01:49:54.013Z,1.98
2022-10-06T01:52:21.173Z,2.20
2022-10-06T01:54:47.968Z,1.80
2022-10-06T01:57:14.715Z,2.20
2022-10-06T01:59:41.502Z,1.98
2022-10-06T02:02:08.246Z,1.77
2022-10-06T02:04:34.953Z,1.88
2022-10-06T02:07:02.500Z,1.85
2022-10-06T02:09:29.271Z,2.22
2022-10-06T02:11:56.074Z,1.80
2022-10-06T02:14:22.822Z,2.05
2022-10-06T02:16:49.680Z,2.08
2022-10-06T02:19:16.552Z,1.58
2022-10-06T02:21:43.368Z,1.88
2022-10-06T02:24:10.307Z,1.80
2022-10-06T02:26:37.100Z,1.92
2022-10-06T02:29:04.077Z,1.95
2022-10-06T02:31:31.618Z,1.80
2022-10-06T02:33:58.955Z,1.77
2022-10-06T02:36:25.763Z,1.63
2022-10-06T02:38:53.065Z,2.00
2022-10-06T02:41:19.858Z,1.73
2022-10-06T02:43:46.629Z,1.60
2022-10-06T02:46:14.019Z,1.65
2022-10-06T02:48:41.352Z,2.30
2022-10-06T02:51:17.108Z,2.10
2022-10-06T02:53:46.372Z,1.60
2022-10-06T02:56:22.530Z,1.90
2022-10-06T02:58:52.005Z,1.55
2022-10-06T03:01:24.022Z,1.67
2022-10-06T03:03:51.565Z,2.08
2022-10-06T03:06:24.140Z,1.67
2022-10-06T03:08:57.438Z,2.10
2022-10-06T03:11:30.682Z,1.75
2022-10-06T03:13:57.996Z,1.75
2022-10-06T03:16:35.536Z,1.77
2022-10-06T03:19:03.520Z,1.70
2022-10-06T03:21:34.929Z,1.80
2022-10-06T03:24:02.127Z,1.88
2022-10-06T03:26:38.836Z,1.80
2022-10-06T03:29:11.100Z,1.90
2022-10-06T03:31:39.718Z,2.10
2022-10-06T03:34:06.797Z,1.88
2022-10-06T03:36:34.772Z,2.25
2022-10-06T03:39:04.555Z,2.08
2022-10-06T03:41:35.996Z,1.98
2022-10-06T03:44:03.861Z,2.10
2022-10-06T03:46:34.100Z,1.90
2022-10-06T03:49:01.643Z,1.90
2022-10-06T03:51:35.279Z,1.88
2022-10-06T03:54:02.328Z,2.75
2022-10-06T03:56:31.571Z,1.85
2022-10-06T03:59:07.905Z,1.73
2022-10-06T04:01:44.912Z,2.15
2022-10-06T04:04:13.345Z,1.63
2022-10-06T04:06:43.965Z,1.50
2022-10-06T04:09:15.648Z,1.70
2022-10-06T04:11:44.622Z,1.67
2022-10-06T04:14:15.411Z,1.60
2022-10-06T04:16:48.647Z,1.42
2022-10-06T04:19:17.607Z,1.20
2022-10-06T04:21:47.137Z,1.40
2022-10-06T04:24:14.314Z,1.38
2022-10-06T04:26:48.934Z,1.42
2022-10-06T04:29:16.317Z,1.40
2022-10-06T04:31:43.700Z,1.30
2022-10-06T04:34:13.373Z,1.23
2022-10-06T04:36:42.564Z,1.38
2022-10-06T04:39:11.986Z,1.20
2022-10-06T04:41:41.727Z,1.00
2022-10-06T04:44:09.078Z,1.00
2022-10-06T04:46:44.712Z,1.05
2022-10-06T04:49:18.952Z,1.00
2022-10-06T04:51:50.533Z,1.00
2022-10-06T04:54:19.572Z,0.80
2022-10-06T04:56:46.571Z,0.82
2022-10-06T04:59:13.479Z,0.80
2022-10-06T05:01:40.318Z,0.70
2022-10-06T05:04:07.553Z,0.90
2022-10-06T05:06:41.285Z,0.80
2022-10-06T05:09:15.607Z,0.68
2022-10-06T05:11:42.681Z,1.08
2022-10-06T05:14:09.649Z,0.60
2022-10-06T05:16:38.164Z,0.55
2022-10-06T05:19:05.670Z,0.65
2022-10-06T05:21:33.129Z,0.60
2022-10-06T05:24:00.471Z,0.80
2022-10-06T05:26:31.107Z,0.57
2022-10-06T05:28:58.705Z,0.50
2022-10-06T05:31:31.896Z,0.70
2022-10-06T05:33:59.749Z,0.40
2022-10-06T05:36:29.870Z,0.80
2022-10-06T05:38:58.064Z,0.75
2022-10-06T05:41:30.547Z,0.80
2022-10-06T05:43:58.361Z,0.60
2022-10-06T05:46:30.663Z,0.50
2022-10-06T05:49:10.487Z,0.70
2022-10-06T05:51:40.061Z,0.70
2022-10-06T05:54:06.938Z,0.60
2022-10-06T05:56:37.811Z,0.55
2022-10-06T05:59:05.855Z,0.68
2022-10-06T06:01:37.911Z,0.50
2022-10-06T06:04:07.369Z,0.50
2022-10-06T06:06:41.152Z,0.50
2022-10-06T06:11:39.830Z,0.40
2022-10-06T06:14:13.380Z,0.47
2022-10-06T06:16:42.382Z,0.50
2022-10-06T06:19:11.485Z,0.45
2022-10-06T06:21:38.548Z,0.80
2022-10-06T06:24:06.997Z,0.70
2022-10-06T06:26:37.442Z,0.50
2022-10-06T06:29:05.426Z,0.52
2022-10-06T06:31:36.833Z,0.65
2022-10-06T06:34:06.644Z,0.88
2022-10-06T06:36:40.929Z,0.90
2022-10-06T06:39:11.434Z,0.90
2022-10-06T06:41:42.594Z,0.80
2022-10-06T06:44:11.562Z,0.60
2022-10-06T06:46:40.330Z,0.80
2022-10-06T06:49:07.833Z,0.55
2022-10-06T06:51:38.203Z,0.90
2022-10-06T06:54:05.414Z,0.82
2022-10-06T06:56:36.653Z,0.60
2022-10-06T06:59:11.835Z,0.75
2022-10-06T07:01:45.947Z,1.05
2022-10-06T07:04:16.044Z,0.73
2022-10-06T07:06:53.332Z,0.73
2022-10-06T07:09:20.825Z,0.85
2022-10-06T07:11:47.578Z,0.75
2022-10-06T07:14:14.312Z,0.73
2022-10-06T07:17:00.107Z,0.80
2022-10-06T07:19:45.362Z,1.00
2022-10-06T07:22:30.726Z,0.70
2022-10-06T07:25:07.288Z,0.80
2022-10-06T07:27:46.709Z,0.73
2022-10-06T07:30:20.928Z,1.20
2022-10-06T07:32:50.251Z,1.00
2022-10-06T07:35:22.606Z,1.00
2022-10-06T07:37:51.272Z,0.60
2022-10-06T07:40:18.492Z,0.70
2022-10-06T07:42:48.500Z,0.80
2022-10-06T07:45:39.664Z,1.17
2022-10-06T07:48:19.191Z,0.73
2022-10-06T07:50:49.841Z,0.80
2022-10-06T07:53:18.666Z,1.08
2022-10-06T07:55:47.712Z,0.93
2022-10-06T07:58:23.909Z,1.00
2022-10-06T08:00:54.780Z,0.80
2022-10-06T08:03:22.118Z,0.98
2022-10-06T08:05:58.543Z,0.95
2022-10-06T08:08:25.426Z,0.90
2022-10-06T08:10:54.998Z,1.00
2022-10-06T08:13:22.014Z,1.00
2022-10-06T08:15:51.260Z,1.10
2022-10-06T08:18:44.280Z,0.90
2022-10-06T08:21:16.307Z,0.90
2022-10-06T08:23:47.006Z,0.75
2022-10-06T08:26:16.624Z,1.10
2022-10-06T08:28:47.297Z,1.05
2022-10-06T08:31:15.861Z,1.23
2022-10-06T08:33:44.981Z,0.90
2022-10-06T08:36:20.673Z,1.00
2022-10-06T08:38:50.122Z,1.00
2022-10-06T08:41:40.401Z,0.95
2022-10-06T08:44:15.958Z,1.20
2022-10-06T08:47:01.327Z,1.10
2022-10-06T08:49:38.610Z,1.13
2022-10-06T08:52:26.950Z,1.23
2022-10-06T08:55:27.122Z,1.02
2022-10-06T08:58:18.250Z,1.50
2022-10-06T09:00:44.977Z,0.98
2022-10-06T09:03:28.830Z,1.27
2022-10-06T09:06:13.457Z,1.08
2022-10-06T09:08:55.779Z,0.80
2022-10-06T09:11:43.250Z,1.33
2022-10-06T09:14:28.349Z,1.00
2022-10-06T09:17:01.947Z,1.10
2022-10-06T09:19:59.751Z,1.33
2022-10-06T09:22:32.088Z,1.10
2022-10-06T09:25:16.215Z,1.25
2022-10-06T09:30:18.739Z,0.95
2022-10-06T09:32:51.773Z,1.35
2022-10-06T09:35:24.495Z,1.20
2022-10-06T09:38:08.806Z,1.13
2022-10-06T09:40:40.282Z,1.20
2022-10-06T09:43:29.268Z,1.27
2022-10-06T09:46:35.750Z,1.10
2022-10-06T09:49:19.033Z,1.10
2022-10-06T09:52:14.935Z,1.30
2022-10-06T09:54:43.761Z,1.10
2022-10-06T09:57:32.013Z,1.08
2022-10-06T10:00:00.108Z,1.20
2022-10-06T10:02:40.938Z,1.00
2022-10-06T10:05:22.487Z,1.70
2022-10-06T10:08:23.227Z,1.48
2022-10-06T10:11:30.388Z,1.50
2022-10-06T10:13:59.053Z,1.10
2022-10-06T10:16:35.557Z,1.20
2022-10-06T10:19:05.634Z,1.00
2022-10-06T10:21:35.122Z,1.00
2022-10-06T10:24:15.419Z,1.35
2022-10-06T10:27:20.059Z,1.50
2022-10-06T10:30:09.290Z,1.20
2022-10-06T10:33:00.327Z,0.98
2022-10-06T10:35:34.184Z,1.15
2022-10-06T10:38:19.104Z,1.02
2022-10-06T10:40:51.433Z,1.83
2022-10-06T10:43:36.078Z,0.90
2022-10-06T10:46:28.486Z,1.08
2022-10-06T10:49:12.708Z,1.23
2022-10-06T10:52:10.558Z,1.05
2022-10-06T10:55:17.826Z,0.88
2022-10-06T10:57:46.848Z,1.08
2022-10-06T11:00:25.241Z,1.27
2022-10-06T11:02:56.629Z,1.05
2022-10-06T11:06:08.691Z,1.20
2022-10-06T11:09:01.543Z,1.63
2022-10-06T11:11:42.511Z,1.00
2022-10-06T11:14:39.824Z,1.20
2022-10-06T11:17:44.012Z,1.20
2022-10-06T11:20:33.168Z,1.08
2022-10-06T11:23:29.312Z,0.80
2022-10-06T11:26:24.601Z,0.90
2022-10-06T11:29:25.564Z,1.00
2022-10-06T11:32:25.102Z,1.00
2022-10-06T11:34:53.188Z,1.38
2022-10-06T11:37:40.970Z,1.30
2022-10-06T11:41:04.131Z,1.10
2022-10-06T11:46:42.772Z,1.35
2022-10-06T11:49:29.670Z,1.10
2022-10-06T11:52:08.362Z,1.00
2022-10-06T11:55:13.982Z,1.20
2022-10-06T11:58:40.787Z,1.17
2022-10-06T12:01:02.404Z,1.48
2022-10-06T12:03:29.510Z,1.08
2022-10-06T12:05:57.235Z,1.10
2022-10-06T12:08:39.918Z,0.90
2022-10-06T12:11:45.380Z,0.98
2022-10-06T12:18:23.707Z,0.77
2022-10-06T12:21:10.480Z,1.27
2022-10-06T12:24:19.662Z,0.90
2022-10-06T12:27:26.554Z,1.00
2022-10-06T12:30:23.536Z,0.80
2022-10-06T12:32:59.139Z,0.98
2022-10-06T12:35:32.946Z,1.00
2022-10-06T12:40:57.571Z,1.30
2022-10-06T12:43:24.322Z,1.13
2022-10-06T12:45:58.960Z,1.00
2022-10-06T12:48:55.521Z,1.10
2022-10-06T12:51:39.666Z,1.05
2022-10-06T12:54:09.816Z,0.82
2022-10-06T12:56:40.932Z,1.17
2022-10-06T12:59:35.170Z,1.25
2022-10-06T13:02:08.922Z,0.75
2022-10-06T13:04:51.271Z,0.80
2022-10-06T13:07:30.423Z,0.85
2022-10-06T13:10:21.602Z,0.90
2022-10-06T13:12:52.145Z,1.05
2022-10-06T13:15:24.025Z,0.98
2022-10-06T13:18:14.733Z,1.10
2022-10-06T13:20:56.174Z,0.80
2022-10-06T13:23:37.794Z,0.90
2022-10-06T13:26:13.633Z,1.20
2022-10-06T13:28:43.480Z,1.02
2022-10-06T13:31:31.541Z,1.17
2022-10-06T13:34:14.759Z,1.20
2022-10-06T13:36:46.726Z,1.33
2022-10-06T13:39:16.505Z,1.30
2022-10-06T13:41:52.266Z,0.90
2022-10-06T13:44:38.946Z,1.10
2022-10-06T13:47:14.743Z,1.00
2022-10-06T13:49:53.286Z,1.10
2022-10-06T13:52:40.062Z,0.93
2022-10-06T13:55:20.453Z,1.00
2022-10-06T13:57:50.086Z,1.10
2022-10-06T14:00:28.950Z,1.00
2022-10-06T14:03:05.609Z,1.08
2022-10-06T14:05:42.314Z,0.90
2022-10-06T14:08:11.760Z,1.08
2022-10-06T14:10:41.262Z,0.95
2022-10-06T14:13:16.569Z,0.90
2022-10-06T14:15:58.536Z,0.98
2022-10-06T14:18:57.078Z,1.05
2022-10-06T14:21:33.991Z,0.90
2022-10-06T14:24:28.450Z,0.82
2022-10-06T14:27:02.136Z,1.05
2022-10-06T14:29:29.055Z,1.13
2022-10-06T14:31:55.966Z,1.20
2022-10-06T14:34:22.724Z,1.33
2022-10-06T14:36:51.689Z,1.23
2022-10-06T14:39:19.562Z,1.23
2022-10-06T14:41:46.957Z,1.33
2022-10-06T14:44:15.608Z,0.85
2022-10-06T14:46:48.039Z,1.00
2022-10-06T14:49:15.509Z,1.10
2022-10-06T14:51:44.264Z,0.90
2022-10-06T14:54:12.235Z,1.25
2022-10-06T14:56:40.697Z,1.08
2022-10-06T14:59:12.202Z,0.95
2022-10-06T15:01:40.592Z,1.67
2022-10-06T15:04:12.158Z,1.17
2022-10-06T15:06:58.193Z,1.10
2022-10-06T15:09:24.929Z,0.73
2022-10-06T15:11:53.742Z,0.88
2022-10-06T15:14:22.937Z,0.98
2022-10-06T15:16:50.880Z,1.10
2022-10-06T15:19:18.102Z,1.20
2022-10-06T15:21:47.934Z,1.40
2022-10-06T15:24:17.879Z,1.02
2022-10-06T15:27:05.002Z,0.70
2022-10-06T15:29:34.665Z,1.20
2022-10-06T15:32:03.754Z,1.00
2022-10-06T15:34:34.355Z,0.93
2022-10-06T15:37:02.012Z,0.90
2022-10-06T15:39:36.155Z,1.20
2022-10-06T15:42:03.480Z,1.10
2022-10-06T15:44:34.438Z,1.30
2022-10-06T15:47:03.752Z,0.70
2022-10-06T15:49:32.648Z,1.02
2022-10-06T15:52:02.992Z,1.40
2022-10-06T15:54:45.879Z,0.98
2022-10-06T15:57:19.489Z,1.10
2022-10-06T15:59:47.588Z,1.30
2022-10-06T16:02:17.287Z,1.63
2022-10-06T16:05:08.713Z,1.38
2022-10-06T16:07:35.418Z,1.15
2022-10-06T16:10:02.142Z,0.95
2022-10-06T16:12:28.893Z,1.25
2022-10-06T16:14:55.689Z,0.98
2022-10-06T16:17:22.440Z,1.00
2022-10-06T16:19:49.301Z,0.90
2022-10-06T16:22:18.499Z,1.38
2022-10-06T16:24:45.327Z,1.20
2022-10-06T16:27:15.080Z,1.25
2022-10-06T16:29:41.859Z,1.20
2022-10-06T16:32:09.015Z,1.40
2022-10-06T16:34:35.842Z,1.20
2022-10-06T16:37:02.697Z,1.10
2022-10-06T16:39:29.516Z,1.38
2022-10-06T16:41:56.282Z,0.93
2022-10-06T16:44:23.213Z,1.38
2022-10-06T16:46:50.030Z,1.38
2022-10-06T16:49:16.850Z,1.30
2022-10-06T16:51:47.324Z,1.63
2022-10-06T16:54:17.330Z,1.80
2022-10-06T16:56:53.740Z,1.23
2022-10-06T16:59:28.710Z,1.50
2022-10-06T17:01:55.613Z,1.42
2022-10-06T17:04:25.352Z,1.55
2022-10-06T17:06:55.606Z,1.50
2022-10-06T17:09:25.872Z,1.63
2022-10-06T17:11:59.604Z,1.90
2022-10-06T17:14:28.384Z,1.92
2022-10-06T17:16:58.571Z,1.63
2022-10-06T17:19:29.285Z,1.40
2022-10-06T17:21:59.303Z,2.20
2022-10-06T17:24:28.835Z,1.88
2022-10-06T17:26:57.607Z,1.88
2022-10-06T17:29:24.913Z,1.50
2022-10-06T17:31:59.482Z,1.55
2022-10-06T17:34:32.351Z,1.55
2022-10-06T17:37:01.776Z,1.55
2022-10-06T17:39:28.565Z,1.52
2022-10-06T17:41:55.343Z,1.80
2022-10-06T17:44:26.377Z,1.42
2022-10-06T17:46:57.035Z,1.92
2022-10-06T17:49:25.042Z,2.15
2022-10-06T17:51:54.145Z,3.10
2022-10-06T17:54:24.450Z,2.63
2022-10-06T17:56:56.811Z,2.88
2022-10-06T17:59:31.512Z,3.00
2022-10-06T18:02:02.791Z,2.95
2022-10-06T18:04:30.399Z,3.20
2022-10-06T18:06:57.433Z,3.35
2022-10-06T18:09:24.389Z,2.90
2022-10-06T18:11:56.327Z,3.25
2022-10-06T18:14:27.038Z,2.47
2022-10-06T18:17:00.740Z,3.00
2022-10-06T18:19:29.969Z,3.17
2022-10-06T18:22:12.893Z,3.25
2022-10-06T18:24:40.378Z,3.40
2022-10-06T18:27:08.462Z,3.65
2022-10-06T18:29:38.316Z,3.58
2022-10-06T18:36:12.801Z,3.30
2022-10-06T18:37:41.598Z,4.07
2022-10-06T18:40:09.659Z,4.30
2022-10-06T18:42:36.431Z,3.90
2022-10-06T18:45:22.168Z,4.15
2022-10-06T18:48:07.602Z,4.10
2022-10-06T18:50:35.159Z,4.07
2022-10-06T18:53:04.214Z,4.28
2022-10-06T18:55:31.839Z,4.30
2022-10-06T18:57:58.755Z,4.10
2022-10-06T19:00:25.920Z,5.43
2022-10-06T19:02:54.840Z,4.78
2022-10-06T19:05:24.608Z,5.60
2022-10-06T19:07:53.788Z,5.45
2022-10-06T19:10:20.735Z,5.32
2022-10-06T19:12:48.354Z,5.00
2022-10-06T19:15:20.363Z,5.10
2022-10-06T19:17:49.482Z,5.18
2022-10-06T19:20:18.162Z,5.32
2022-10-06T19:22:45.008Z,4.75
2022-10-06T19:25:13.040Z,5.35
2022-10-06T19:27:40.112Z,5.43
2022-10-06T19:30:07.719Z,5.75
2022-10-06T19:32:34.487Z,5.25
2022-10-06T19:35:01.183Z,6.43
2022-10-06T19:37:30.731Z,5.85
2022-10-06T19:39:57.916Z,5.60
2022-10-06T19:42:43.750Z,5.25
2022-10-06T19:45:12.200Z,5.65
2022-10-06T19:47:40.195Z,5.03
2022-10-06T19:50:12.046Z,5.20
2022-10-06T19:52:41.304Z,4.93
2022-10-06T19:55:08.559Z,4.88
2022-10-06T19:57:35.612Z,4.57
2022-10-06T20:00:03.640Z,4.82
2022-10-06T20:02:30.595Z,4.80
2022-10-06T20:04:57.513Z,4.90
2022-10-06T20:07:27.676Z,5.15
2022-10-06T20:09:55.816Z,5.25
2022-10-06T20:12:25.272Z,5.85
2022-10-06T20:14:55.983Z,5.20
2022-10-06T20:17:23.158Z,5.45
2022-10-06T20:19:55.193Z,6.82
2022-10-06T20:22:25.101Z,5.57
2022-10-06T20:24:52.197Z,4.90
2022-10-06T20:27:18.943Z,5.03
2022-10-06T20:29:45.798Z,4.70
2022-10-06T20:32:12.501Z,5.10
2022-10-06T20:34:39.410Z,4.75
2022-10-06T20:37:06.353Z,4.53
2022-10-06T20:39:52.551Z,4.50
2022-10-06T20:42:20.902Z,3.67
2022-10-06T20:44:47.617Z,4.18
2022-10-06T20:47:16.392Z,4.68
2022-10-06T20:49:43.286Z,4.28
2022-10-06T20:52:10.223Z,4.32
2022-10-06T20:54:37.431Z,3.83
2022-10-06T20:57:06.686Z,4.40
2022-10-06T20:59:35.450Z,4.57
2022-10-06T21:02:03.686Z,3.85
2022-10-06T21:04:30.812Z,4.80
2022-10-06T21:06:57.992Z,4.22
2022-10-06T21:09:25.083Z,4.05
2022-10-06T21:11:51.974Z,3.80
2022-10-06T21:14:19.187Z,3.80
2022-10-06T21:16:48.274Z,4.00
2022-10-06T21:19:18.124Z,3.55
2022-10-06T21:21:51.949Z,4.00
2022-10-06T21:26:46.499Z,3.63
2022-10-06T21:29:15.741Z,4.00
2022-10-06T21:31:44.751Z,3.80
2022-10-06T21:34:14.374Z,3.50
2022-10-06T21:36:42.382Z,3.55
2022-10-06T21:39:10.497Z,3.40
2022-10-06T21:41:39.420Z,4.00
2022-10-06T21:44:15.814Z,4.00
2022-10-06T21:46:54.439Z,3.53
2022-10-06T21:49:24.246Z,3.55
2022-10-06T21:51:55.169Z,3.88
2022-10-06T21:54:23.415Z,3.85
2022-10-06T21:56:50.953Z,3.58
2022-10-06T21:59:17.891Z,3.88
2022-10-06T22:01:46.977Z,4.38
2022-10-06T22:04:15.182Z,3.83
2022-10-06T22:06:44.265Z,3.20
2022-10-06T22:09:17.288Z,3.10
2022-10-06T22:11:45.103Z,4.03
2022-10-06T22:14:16.665Z,3.17
2022-10-06T22:16:44.013Z,2.95
2022-10-06T22:19:13.867Z,3.17
2022-10-06T22:21:43.923Z,2.90
2022-10-06T22:24:19.872Z,3.03
2022-10-06T22:26:48.285Z,2.72
2022-10-06T22:29:18.140Z,3.25
2022-10-06T22:31:47.164Z,3.30
2022-10-06T22:34:18.444Z,3.00
2022-10-06T22:36:45.431Z,2.72
2022-10-06T22:39:12.344Z,3.00
2022-10-06T22:41:39.376Z,3.33
2022-10-06T22:44:06.474Z,2.95
2022-10-06T22:46:36.279Z,3.38
2022-10-06T22:49:04.931Z,2.85
2022-10-06T22:51:32.390Z,3.35
2022-10-06T22:54:00.564Z,3.10
2022-10-06T22:56:31.632Z,2.90
2022-10-06T22:58:59.877Z,2.67
2022-10-06T23:01:29.134Z,2.90
2022-10-06T23:03:56.530Z,2.88
2022-10-06T23:06:24.614Z,2.38
2022-10-06T23:08:51.848Z,3.17
2022-10-06T23:11:21.384Z,3.50
2022-10-06T23:13:50.272Z,2.83
2022-10-06T23:16:19.640Z,2.75
2022-10-06T23:18:48.411Z,2.80
2022-10-06T23:21:22.293Z,2.25
2022-10-06T23:23:53.128Z,2.63
2022-10-06T23:26:20.954Z,2.70
2022-10-06T23:28:57.343Z,2.55
2022-10-06T23:31:25.383Z,2.10
2022-10-06T23:33:53.232Z,2.33
2022-10-06T23:36:20.204Z,2.40
2022-10-06T23:38:47.688Z,2.22
2022-10-06T23:41:15.349Z,2.20
2022-10-06T23:43:42.925Z,2.30
2022-10-06T23:46:09.894Z,2.30
2022-10-06T23:48:37.450Z,2.53
2022-10-06T23:51:14.123Z,2.50
2022-10-06T23:53:41.481Z,2.53
2022-10-06T23:56:09.512Z,2.90
2022-10-06T23:58:36.782Z,2.40
